Alamo Heights, Texas
Current Conditions -  °F | °C
As of 10:51 AM on Friday 31 Oct 2014 (Local Time) from KSAT Reporting Station
Scattered Clouds Scattered Clouds  
Wind Chill: 68°   Ceiling: Unl
Heat Index: 68°   Visibility: 10mi
Dew Point: 51°   Wind: 10mph
Humidity: 55%   Direction: 10°N
Pressure: 30.29"   Gusts: NA
Location:  29.4797°N, 98.4508°W
Report Text: KSAT 311551Z 01009KT 10SM SCT250 20/11 A3029 RMK AO2 SLP241 T02000106
Loading
Personal Weather Stations






























Interactive Weather Map
Tropical Storm Tracking
New forecast layout! Learn more

10-Day Weather Forecast

Advertisements
Track Severe Weather on mobile